sensor_id;sensor_type;location;lat;lon;timestamp;temperature;humidity
13694;DHT22;6919;52.344;14.518;2023-05-07T00:01:18;8.60;99.90
13694;DHT22;6919;52.344;14.518;2023-05-07T00:03:46;8.80;99.90
13694;DHT22;6919;52.344;14.518;2023-05-07T00:06:14;8.80;99.90
13694;DHT22;6919;52.344;14.518;2023-05-07T00:08:43;8.70;99.90
13694;DHT22;6919;52.344;14.518;2023-05-07T00:11:11;8.60;99.90
13694;DHT22;6919;52.344;14.518;2023-05-07T00:13:39;8.70;99.90
13694;DHT22;6919;52.344;14.518;2023-05-07T00:16:07;8.70;99.90
13694;DHT22;6919;52.344;14.518;2023-05-07T00:18:37;8.80;99.90
13694;DHT22;6919;52.344;14.518;2023-05-07T00:21:05;8.80;99.90
13694;DHT22;6919;52.344;14.518;2023-05-07T00:23:34;8.70;99.90
13694;DHT22;6919;52.344;14.518;2023-05-07T00:26:02;8.70;99.90
13694;DHT22;6919;52.344;14.518;2023-05-07T00:28:30;8.60;99.90
13694;DHT22;6919;52.344;14.518;2023-05-07T00:30:58;8.50;99.90
13694;DHT22;6919;52.344;14.518;2023-05-07T00:33:27;8.60;99.90
13694;DHT22;6919;52.344;14.518;2023-05-07T00:35:56;8.60;99.90
13694;DHT22;6919;52.344;14.518;2023-05-07T00:38:24;8.60;99.90
13694;DHT22;6919;52.344;14.518;2023-05-07T00:40:53;8.50;99.90
13694;DHT22;6919;52.344;14.518;2023-05-07T00:43:21;8.50;99.90
13694;DHT22;6919;52.344;14.518;2023-05-07T00:45:49;8.50;99.90
13694;DHT22;6919;52.344;14.518;2023-05-07T00:48:18;8.60;99.90
13694;DHT22;6919;52.344;14.518;2023-05-07T00:50:46;8.50;99.90
13694;DHT22;6919;52.344;14.518;2023-05-07T00:53:17;8.70;99.90
13694;DHT22;6919;52.344;14.518;2023-05-07T00:55:45;8.70;99.90
13694;DHT22;6919;52.344;14.518;2023-05-07T00:58:13;8.50;99.90
13694;DHT22;6919;52.344;14.518;2023-05-07T01:00:42;8.50;99.90
13694;DHT22;6919;52.344;14.518;2023-05-07T01:03:10;8.50;99.90
13694;DHT22;6919;52.344;14.518;2023-05-07T01:05:38;8.60;99.90
13694;DHT22;6919;52.344;14.518;2023-05-07T01:08:08;8.60;99.90
13694;DHT22;6919;52.344;14.518;2023-05-07T01:10:39;8.50;99.90
13694;DHT22;6919;52.344;14.518;2023-05-07T01:13:09;8.60;99.90
13694;DHT22;6919;52.344;14.518;2023-05-07T01:15:40;8.60;99.90
13694;DHT22;6919;52.344;14.518;2023-05-07T01:18:08;8.40;99.90
13694;DHT22;6919;52.344;14.518;2023-05-07T01:20:37;8.50;99.90
13694;DHT22;6919;52.344;14.518;2023-05-07T01:23:07;8.40;99.90
13694;DHT22;6919;52.344;14.518;2023-05-07T01:25:36;8.40;99.90
13694;DHT22;6919;52.344;14.518;2023-05-07T01:28:04;8.50;99.90
13694;DHT22;6919;52.344;14.518;2023-05-07T01:30:33;8.40;99.90
13694;DHT22;6919;52.344;14.518;2023-05-07T01:33:06;8.40;99.90
13694;DHT22;6919;52.344;14.518;2023-05-07T01:35:40;8.30;99.90
13694;DHT22;6919;52.344;14.518;2023-05-07T01:38:13;8.30;99.90
13694;DHT22;6919;52.344;14.518;2023-05-07T01:40:42;8.20;99.90
13694;DHT22;6919;52.344;14.518;2023-05-07T01:43:11;8.20;99.90
13694;DHT22;6919;52.344;14.518;2023-05-07T01:45:40;8.10;99.90
13694;DHT22;6919;52.344;14.518;2023-05-07T01:48:10;8.10;99.90
13694;DHT22;6919;52.344;14.518;2023-05-07T01:50:39;8.00;99.90
13694;DHT22;6919;52.344;14.518;2023-05-07T01:53:09;8.10;99.90
13694;DHT22;6919;52.344;14.518;2023-05-07T01:55:38;8.10;99.90
13694;DHT22;6919;52.344;14.518;2023-05-07T01:58:06;8.20;99.90
13694;DHT22;6919;52.344;14.518;2023-05-07T02:00:35;8.10;99.90
13694;DHT22;6919;52.344;14.518;2023-05-07T02:03:03;8.10;99.90
13694;DHT22;6919;52.344;14.518;2023-05-07T02:05:32;8.10;99.90
13694;DHT22;6919;52.344;14.518;2023-05-07T02:08:00;8.20;99.90
13694;DHT22;6919;52.344;14.518;2023-05-07T02:10:28;8.40;99.90
13694;DHT22;6919;52.344;14.518;2023-05-07T02:12:58;8.50;99.90
13694;DHT22;6919;52.344;14.518;2023-05-07T02:15:28;8.30;99.90
13694;DHT22;6919;52.344;14.518;2023-05-07T02:18:01;8.30;99.90
13694;DHT22;6919;52.344;14.518;2023-05-07T02:20:31;8.30;99.90
13694;DHT22;6919;52.344;14.518;2023-05-07T02:22:59;8.30;99.90
13694;DHT22;6919;52.344;14.518;2023-05-07T02:25:28;8.30;99.90
13694;DHT22;6919;52.344;14.518;2023-05-07T02:27:58;8.30;99.90
13694;DHT22;6919;52.344;14.518;2023-05-07T02:30:26;8.40;99.90
13694;DHT22;6919;52.344;14.518;2023-05-07T02:32:54;8.40;99.90
13694;DHT22;6919;52.344;14.518;2023-05-07T02:35:24;8.30;99.90
13694;DHT22;6919;52.344;14.518;2023-05-07T02:37:52;8.50;99.90
13694;DHT22;6919;52.344;14.518;2023-05-07T02:40:20;8.40;99.90
13694;DHT22;6919;52.344;14.518;2023-05-07T02:42:49;8.40;99.90
13694;DHT22;6919;52.344;14.518;2023-05-07T02:45:18;8.40;99.90
13694;DHT22;6919;52.344;14.518;2023-05-07T02:47:47;8.40;99.90
13694;DHT22;6919;52.344;14.518;2023-05-07T02:50:15;8.30;99.90
13694;DHT22;6919;52.344;14.518;2023-05-07T02:52:43;8.40;99.90
13694;DHT22;6919;52.344;14.518;2023-05-07T02:55:11;8.30;99.90
13694;DHT22;6919;52.344;14.518;2023-05-07T02:57:40;8.30;99.90
13694;DHT22;6919;52.344;14.518;2023-05-07T03:00:13;8.30;99.90
13694;DHT22;6919;52.344;14.518;2023-05-07T03:02:43;8.30;99.90
13694;DHT22;6919;52.344;14.518;2023-05-07T03:05:12;8.30;99.90
13694;DHT22;6919;52.344;14.518;2023-05-07T03:07:41;8.30;92.80
13694;DHT22;6919;52.344;14.518;2023-05-07T03:10:12;8.30;84.60
13694;DHT22;6919;52.344;14.518;2023-05-07T03:12:40;8.30;84.00
13694;DHT22;6919;52.344;14.518;2023-05-07T03:15:09;8.20;91.70
13694;DHT22;6919;52.344;14.518;2023-05-07T03:17:39;8.20;95.90
13694;DHT22;6919;52.344;14.518;2023-05-07T03:20:10;8.20;89.40
13694;DHT22;6919;52.344;14.518;2023-05-07T03:22:40;8.20;91.40
13694;DHT22;6919;52.344;14.518;2023-05-07T03:25:08;8.10;83.60
13694;DHT22;6919;52.344;14.518;2023-05-07T03:27:38;8.10;96.20
13694;DHT22;6919;52.344;14.518;2023-05-07T03:30:09;8.10;98.30
13694;DHT22;6919;52.344;14.518;2023-05-07T03:32:38;8.20;87.90
13694;DHT22;6919;52.344;14.518;2023-05-07T03:35:08;8.30;59.20
13694;DHT22;6919;52.344;14.518;2023-05-07T03:37:37;8.30;37.70
13694;DHT22;6919;52.344;14.518;2023-05-07T03:40:07;8.20;18.60
13694;DHT22;6919;52.344;14.518;2023-05-07T03:42:37;8.20;25.20
13694;DHT22;6919;52.344;14.518;2023-05-07T03:45:07;8.20;39.70
13694;DHT22;6919;52.344;14.518;2023-05-07T03:47:36;8.10;46.60
13694;DHT22;6919;52.344;14.518;2023-05-07T03:50:05;8.20;30.00
13694;DHT22;6919;52.344;14.518;2023-05-07T03:52:35;8.20;17.70
13694;DHT22;6919;52.344;14.518;2023-05-07T03:55:03;8.20;12.70
13694;DHT22;6919;52.344;14.518;2023-05-07T03:57:32;8.20;21.80
13694;DHT22;6919;52.344;14.518;2023-05-07T04:00:00;8.30;13.60
13694;DHT22;6919;52.344;14.518;2023-05-07T04:02:30;8.40;2.30
13694;DHT22;6919;52.344;14.518;2023-05-07T04:04:58;8.40;1.00
13694;DHT22;6919;52.344;14.518;2023-05-07T04:07:27;8.30;1.00
13694;DHT22;6919;52.344;14.518;2023-05-07T04:09:56;8.30;1.00
13694;DHT22;6919;52.344;14.518;2023-05-07T04:12:24;8.20;22.50
13694;DHT22;6919;52.344;14.518;2023-05-07T04:14:53;8.30;33.80
13694;DHT22;6919;52.344;14.518;2023-05-07T04:17:21;8.20;26.20
13694;DHT22;6919;52.344;14.518;2023-05-07T04:19:49;8.20;38.70
13694;DHT22;6919;52.344;14.518;2023-05-07T04:22:17;8.30;50.90
13694;DHT22;6919;52.344;14.518;2023-05-07T04:24:46;8.30;42.60
13694;DHT22;6919;52.344;14.518;2023-05-07T04:27:15;8.40;34.20
13694;DHT22;6919;52.344;14.518;2023-05-07T04:29:43;8.50;24.90
13694;DHT22;6919;52.344;14.518;2023-05-07T04:32:14;8.70;15.80
13694;DHT22;6919;52.344;14.518;2023-05-07T04:34:42;8.80;14.50
13694;DHT22;6919;52.344;14.518;2023-05-07T04:37:10;9.10;9.50
13694;DHT22;6919;52.344;14.518;2023-05-07T04:39:38;9.30;1.00
13694;DHT22;6919;52.344;14.518;2023-05-07T04:42:07;9.60;1.00
13694;DHT22;6919;52.344;14.518;2023-05-07T04:44:37;9.70;99.90
13694;DHT22;6919;52.344;14.518;2023-05-07T04:47:05;9.60;99.90
13694;DHT22;6919;52.344;14.518;2023-05-07T04:49:34;9.50;30.80
13694;DHT22;6919;52.344;14.518;2023-05-07T04:52:02;9.60;99.90
13694;DHT22;6919;52.344;14.518;2023-05-07T04:54:31;9.70;99.90
13694;DHT22;6919;52.344;14.518;2023-05-07T04:56:59;9.80;54.20
13694;DHT22;6919;52.344;14.518;2023-05-07T04:59:28;9.90;99.90
13694;DHT22;6919;52.344;14.518;2023-05-07T05:01:58;9.90;99.90
13694;DHT22;6919;52.344;14.518;2023-05-07T05:04:26;9.80;1.00
13694;DHT22;6919;52.344;14.518;2023-05-07T05:06:55;9.90;99.90
13694;DHT22;6919;52.344;14.518;2023-05-07T05:09:23;10.00;1.00
13694;DHT22;6919;52.344;14.518;2023-05-07T05:11:51;10.10;1.00
13694;DHT22;6919;52.344;14.518;2023-05-07T05:14:19;10.20;1.00
13694;DHT22;6919;52.344;14.518;2023-05-07T05:16:48;10.10;99.90
13694;DHT22;6919;52.344;14.518;2023-05-07T05:19:17;10.20;1.00
13694;DHT22;6919;52.344;14.518;2023-05-07T05:21:46;10.30;25.60
13694;DHT22;6919;52.344;14.518;2023-05-07T05:24:14;10.30;1.00
13694;DHT22;6919;52.344;14.518;2023-05-07T05:26:42;10.30;99.90
13694;DHT22;6919;52.344;14.518;2023-05-07T05:29:11;10.10;99.90
13694;DHT22;6919;52.344;14.518;2023-05-07T05:31:39;10.30;99.90
13694;DHT22;6919;52.344;14.518;2023-05-07T05:34:08;10.60;1.00
13694;DHT22;6919;52.344;14.518;2023-05-07T05:36:38;10.60;99.90
13694;DHT22;6919;52.344;14.518;2023-05-07T05:39:06;10.60;99.90
13694;DHT22;6919;52.344;14.518;2023-05-07T05:41:35;10.60;99.90
13694;DHT22;6919;52.344;14.518;2023-05-07T05:44:04;10.70;1.00
13694;DHT22;6919;52.344;14.518;2023-05-07T05:46:32;10.70;99.90
13694;DHT22;6919;52.344;14.518;2023-05-07T05:49:03;10.70;99.90
13694;DHT22;6919;52.344;14.518;2023-05-07T05:51:31;10.70;1.00
13694;DHT22;6919;52.344;14.518;2023-05-07T05:54:01;10.70;1.00
13694;DHT22;6919;52.344;14.518;2023-05-07T05:56:29;10.80;99.90
13694;DHT22;6919;52.344;14.518;2023-05-07T05:58:57;10.60;1.00
13694;DHT22;6919;52.344;14.518;2023-05-07T06:01:26;10.70;99.90
13694;DHT22;6919;52.344;14.518;2023-05-07T06:03:54;10.90;1.00
13694;DHT22;6919;52.344;14.518;2023-05-07T06:06:22;10.90;1.00
13694;DHT22;6919;52.344;14.518;2023-05-07T06:08:50;11.20;1.00
13694;DHT22;6919;52.344;14.518;2023-05-07T06:11:21;11.30;99.90
13694;DHT22;6919;52.344;14.518;2023-05-07T06:13:49;11.10;1.00
13694;DHT22;6919;52.344;14.518;2023-05-07T06:16:17;11.10;99.90
13694;DHT22;6919;52.344;14.518;2023-05-07T06:18:46;11.40;1.00
13694;DHT22;6919;52.344;14.518;2023-05-07T06:21:14;11.60;99.90
13694;DHT22;6919;52.344;14.518;2023-05-07T06:23:43;11.70;1.00
13694;DHT22;6919;52.344;14.518;2023-05-07T06:26:11;12.00;1.00
13694;DHT22;6919;52.344;14.518;2023-05-07T06:28:40;12.30;1.00
13694;DHT22;6919;52.344;14.518;2023-05-07T06:31:13;12.30;99.90
13694;DHT22;6919;52.344;14.518;2023-05-07T06:33:44;12.70;1.00
13694;DHT22;6919;52.344;14.518;2023-05-07T06:36:12;12.60;99.90
13694;DHT22;6919;52.344;14.518;2023-05-07T06:38:42;12.60;1.00
13694;DHT22;6919;52.344;14.518;2023-05-07T06:41:10;12.60;1.00
13694;DHT22;6919;52.344;14.518;2023-05-07T06:43:40;12.50;1.00
13694;DHT22;6919;52.344;14.518;2023-05-07T06:46:08;12.60;1.00
13694;DHT22;6919;52.344;14.518;2023-05-07T06:48:36;12.80;1.00
13694;DHT22;6919;52.344;14.518;2023-05-07T06:51:05;12.80;1.00
13694;DHT22;6919;52.344;14.518;2023-05-07T06:53:33;12.70;1.00
13694;DHT22;6919;52.344;14.518;2023-05-07T06:56:02;12.60;1.00
13694;DHT22;6919;52.344;14.518;2023-05-07T06:58:31;12.60;1.00
13694;DHT22;6919;52.344;14.518;2023-05-07T07:01:01;12.80;99.90
13694;DHT22;6919;52.344;14.518;2023-05-07T07:03:29;12.90;1.00
13694;DHT22;6919;52.344;14.518;2023-05-07T07:05:58;12.70;1.00
13694;DHT22;6919;52.344;14.518;2023-05-07T07:08:26;12.60;1.00
13694;DHT22;6919;52.344;14.518;2023-05-07T07:10:54;12.50;21.00
13694;DHT22;6919;52.344;14.518;2023-05-07T07:13:23;12.40;1.00
13694;DHT22;6919;52.344;14.518;2023-05-07T07:15:52;12.30;1.00
13694;DHT22;6919;52.344;14.518;2023-05-07T07:18:22;12.40;1.00
13694;DHT22;6919;52.344;14.518;2023-05-07T07:20:50;12.50;1.00
13694;DHT22;6919;52.344;14.518;2023-05-07T07:23:18;12.60;1.00
13694;DHT22;6919;52.344;14.518;2023-05-07T07:25:47;12.50;1.00
13694;DHT22;6919;52.344;14.518;2023-05-07T07:28:15;12.30;1.00
13694;DHT22;6919;52.344;14.518;2023-05-07T07:30:43;12.20;1.00
13694;DHT22;6919;52.344;14.518;2023-05-07T07:33:11;12.20;1.00
13694;DHT22;6919;52.344;14.518;2023-05-07T07:35:41;12.40;99.90
13694;DHT22;6919;52.344;14.518;2023-05-07T07:38:10;12.80;1.00
13694;DHT22;6919;52.344;14.518;2023-05-07T07:40:38;13.00;1.00
13694;DHT22;6919;52.344;14.518;2023-05-07T07:43:07;13.60;1.00
13694;DHT22;6919;52.344;14.518;2023-05-07T07:45:35;13.80;99.90
13694;DHT22;6919;52.344;14.518;2023-05-07T07:48:04;13.80;99.90
13694;DHT22;6919;52.344;14.518;2023-05-07T07:50:32;13.50;99.90
13694;DHT22;6919;52.344;14.518;2023-05-07T07:53:12;13.40;99.90
13694;DHT22;6919;52.344;14.518;2023-05-07T07:55:40;13.50;99.90
13694;DHT22;6919;52.344;14.518;2023-05-07T07:58:09;13.60;99.90
13694;DHT22;6919;52.344;14.518;2023-05-07T08:00:37;13.30;99.90
13694;DHT22;6919;52.344;14.518;2023-05-07T08:03:05;13.00;1.00
13694;DHT22;6919;52.344;14.518;2023-05-07T08:05:37;13.20;1.00
13694;DHT22;6919;52.344;14.518;2023-05-07T08:08:05;13.60;99.90
13694;DHT22;6919;52.344;14.518;2023-05-07T08:10:35;13.40;99.90
13694;DHT22;6919;52.344;14.518;2023-05-07T08:13:06;13.00;99.90
13694;DHT22;6919;52.344;14.518;2023-05-07T08:15:34;13.50;99.90
13694;DHT22;6919;52.344;14.518;2023-05-07T08:18:03;13.50;99.90
13694;DHT22;6919;52.344;14.518;2023-05-07T08:20:31;13.60;99.90
13694;DHT22;6919;52.344;14.518;2023-05-07T08:23:00;13.70;99.90
13694;DHT22;6919;52.344;14.518;2023-05-07T08:25:28;13.60;99.90
13694;DHT22;6919;52.344;14.518;2023-05-07T08:27:57;13.50;99.90
13694;DHT22;6919;52.344;14.518;2023-05-07T08:30:26;13.60;99.90
13694;DHT22;6919;52.344;14.518;2023-05-07T08:32:54;13.60;99.90
13694;DHT22;6919;52.344;14.518;2023-05-07T08:35:22;13.50;99.90
13694;DHT22;6919;52.344;14.518;2023-05-07T08:37:52;13.40;99.90
13694;DHT22;6919;52.344;14.518;2023-05-07T08:40:20;13.20;99.90
13694;DHT22;6919;52.344;14.518;2023-05-07T08:42:53;13.30;99.90
13694;DHT22;6919;52.344;14.518;2023-05-07T08:45:23;13.50;99.90
13694;DHT22;6919;52.344;14.518;2023-05-07T08:47:54;13.60;99.90
13694;DHT22;6919;52.344;14.518;2023-05-07T08:50:26;13.70;99.90
13694;DHT22;6919;52.344;14.518;2023-05-07T08:52:54;13.90;99.90
13694;DHT22;6919;52.344;14.518;2023-05-07T08:55:24;14.00;99.90
13694;DHT22;6919;52.344;14.518;2023-05-07T08:57:52;14.20;99.90
13694;DHT22;6919;52.344;14.518;2023-05-07T09:00:22;14.50;99.90
13694;DHT22;6919;52.344;14.518;2023-05-07T09:02:51;14.60;99.90
13694;DHT22;6919;52.344;14.518;2023-05-07T09:05:20;14.70;99.90
13694;DHT22;6919;52.344;14.518;2023-05-07T09:07:48;14.60;99.90
13694;DHT22;6919;52.344;14.518;2023-05-07T09:10:20;14.60;99.90
13694;DHT22;6919;52.344;14.518;2023-05-07T09:12:49;14.80;99.90
13694;DHT22;6919;52.344;14.518;2023-05-07T09:15:18;14.70;99.90
13694;DHT22;6919;52.344;14.518;2023-05-07T09:17:48;14.60;99.90
13694;DHT22;6919;52.344;14.518;2023-05-07T09:20:16;14.60;99.90
13694;DHT22;6919;52.344;14.518;2023-05-07T09:22:45;14.40;99.90
13694;DHT22;6919;52.344;14.518;2023-05-07T09:25:13;14.50;99.90
13694;DHT22;6919;52.344;14.518;2023-05-07T09:27:42;14.20;99.90
13694;DHT22;6919;52.344;14.518;2023-05-07T09:30:11;14.00;99.90
13694;DHT22;6919;52.344;14.518;2023-05-07T09:32:40;13.90;99.90
13694;DHT22;6919;52.344;14.518;2023-05-07T09:35:16;14.00;99.90
13694;DHT22;6919;52.344;14.518;2023-05-07T09:37:48;14.10;99.90
13694;DHT22;6919;52.344;14.518;2023-05-07T09:40:23;14.30;99.90
13694;DHT22;6919;52.344;14.518;2023-05-07T09:42:52;14.60;99.90
13694;DHT22;6919;52.344;14.518;2023-05-07T09:45:25;14.30;99.90
13694;DHT22;6919;52.344;14.518;2023-05-07T09:47:55;14.30;99.90
13694;DHT22;6919;52.344;14.518;2023-05-07T09:50:28;14.30;99.90
13694;DHT22;6919;52.344;14.518;2023-05-07T09:52:58;14.20;99.90
13694;DHT22;6919;52.344;14.518;2023-05-07T09:55:26;14.40;99.90
13694;DHT22;6919;52.344;14.518;2023-05-07T09:57:55;14.60;99.90
13694;DHT22;6919;52.344;14.518;2023-05-07T10:00:28;14.60;99.90
13694;DHT22;6919;52.344;14.518;2023-05-07T10:02:57;14.90;99.90
13694;DHT22;6919;52.344;14.518;2023-05-07T10:05:29;15.00;99.90
13694;DHT22;6919;52.344;14.518;2023-05-07T10:07:58;14.90;99.90
13694;DHT22;6919;52.344;14.518;2023-05-07T10:10:32;15.00;99.90
13694;DHT22;6919;52.344;14.518;2023-05-07T10:13:02;15.10;99.90
13694;DHT22;6919;52.344;14.518;2023-05-07T10:15:32;15.10;99.90
13694;DHT22;6919;52.344;14.518;2023-05-07T10:18:03;14.90;99.90
13694;DHT22;6919;52.344;14.518;2023-05-07T10:20:36;14.80;99.90
13694;DHT22;6919;52.344;14.518;2023-05-07T10:23:05;14.90;99.90
13694;DHT22;6919;52.344;14.518;2023-05-07T10:25:36;15.10;99.90
13694;DHT22;6919;52.344;14.518;2023-05-07T10:28:06;15.30;99.90
13694;DHT22;6919;52.344;14.518;2023-05-07T10:30:46;15.40;99.90
13694;DHT22;6919;52.344;14.518;2023-05-07T10:33:29;15.50;99.90
13694;DHT22;6919;52.344;14.518;2023-05-07T10:36:01;15.50;99.90
13694;DHT22;6919;52.344;14.518;2023-05-07T10:38:31;15.50;99.90
13694;DHT22;6919;52.344;14.518;2023-05-07T10:40:59;15.30;99.90
13694;DHT22;6919;52.344;14.518;2023-05-07T10:43:39;15.20;99.90
13694;DHT22;6919;52.344;14.518;2023-05-07T10:46:14;15.20;99.90
13694;DHT22;6919;52.344;14.518;2023-05-07T10:49:09;15.40;99.90
13694;DHT22;6919;52.344;14.518;2023-05-07T10:51:40;15.60;99.90
13694;DHT22;6919;52.344;14.518;2023-05-07T10:54:22;15.40;99.90
13694;DHT22;6919;52.344;14.518;2023-05-07T10:56:53;15.30;99.90
13694;DHT22;6919;52.344;14.518;2023-05-07T10:59:35;15.30;99.90
13694;DHT22;6919;52.344;14.518;2023-05-07T11:02:10;15.50;99.90
13694;DHT22;6919;52.344;14.518;2023-05-07T11:04:41;15.50;99.90
13694;DHT22;6919;52.344;14.518;2023-05-07T11:07:28;15.40;99.90
13694;DHT22;6919;52.344;14.518;2023-05-07T11:09:59;15.30;99.90
13694;DHT22;6919;52.344;14.518;2023-05-07T11:12:52;15.30;99.90
13694;DHT22;6919;52.344;14.518;2023-05-07T11:15:39;15.30;99.90
13694;DHT22;6919;52.344;14.518;2023-05-07T11:18:11;15.40;99.90
13694;DHT22;6919;52.344;14.518;2023-05-07T11:20:55;15.30;99.90
13694;DHT22;6919;52.344;14.518;2023-05-07T11:23:57;15.20;99.90
13694;DHT22;6919;52.344;14.518;2023-05-07T11:26:28;15.40;99.90
13694;DHT22;6919;52.344;14.518;2023-05-07T11:28:57;15.20;99.90
13694;DHT22;6919;52.344;14.518;2023-05-07T11:31:27;15.30;99.90
13694;DHT22;6919;52.344;14.518;2023-05-07T11:33:57;15.40;99.90
13694;DHT22;6919;52.344;14.518;2023-05-07T11:36:31;15.40;99.90
13694;DHT22;6919;52.344;14.518;2023-05-07T11:39:01;15.60;99.90
13694;DHT22;6919;52.344;14.518;2023-05-07T11:41:36;15.40;99.90
13694;DHT22;6919;52.344;14.518;2023-05-07T11:44:04;15.60;99.90
13694;DHT22;6919;52.344;14.518;2023-05-07T11:46:33;15.80;99.90
13694;DHT22;6919;52.344;14.518;2023-05-07T11:49:02;16.00;99.90
13694;DHT22;6919;52.344;14.518;2023-05-07T11:51:30;15.90;99.90
13694;DHT22;6919;52.344;14.518;2023-05-07T11:53:58;16.00;99.90
13694;DHT22;6919;52.344;14.518;2023-05-07T11:56:34;16.20;97.30
13694;DHT22;6919;52.344;14.518;2023-05-07T11:59:03;16.70;93.00
13694;DHT22;6919;52.344;14.518;2023-05-07T12:01:31;17.20;92.90
13694;DHT22;6919;52.344;14.518;2023-05-07T12:04:03;17.40;71.20
13694;DHT22;6919;52.344;14.518;2023-05-07T12:06:36;17.70;67.10
13694;DHT22;6919;52.344;14.518;2023-05-07T12:09:07;18.10;73.60
13694;DHT22;6919;52.344;14.518;2023-05-07T12:11:38;18.50;77.80
13694;DHT22;6919;52.344;14.518;2023-05-07T12:14:07;18.80;65.00
13694;DHT22;6919;52.344;14.518;2023-05-07T12:16:40;18.50;49.20
13694;DHT22;6919;52.344;14.518;2023-05-07T12:19:08;18.70;54.40
13694;DHT22;6919;52.344;14.518;2023-05-07T12:21:41;18.80;48.10
13694;DHT22;6919;52.344;14.518;2023-05-07T12:24:11;18.70;45.90
13694;DHT22;6919;52.344;14.518;2023-05-07T12:26:41;18.60;43.40
13694;DHT22;6919;52.344;14.518;2023-05-07T12:29:11;18.10;42.10
13694;DHT22;6919;52.344;14.518;2023-05-07T12:31:40;18.50;45.70
13694;DHT22;6919;52.344;14.518;2023-05-07T12:34:11;18.20;39.60
13694;DHT22;6919;52.344;14.518;2023-05-07T12:36:40;18.80;40.70
13694;DHT22;6919;52.344;14.518;2023-05-07T12:39:08;19.00;38.00
13694;DHT22;6919;52.344;14.518;2023-05-07T12:41:53;19.20;38.60
13694;DHT22;6919;52.344;14.518;2023-05-07T12:44:22;18.60;30.00
13694;DHT22;6919;52.344;14.518;2023-05-07T12:46:51;18.00;32.30
13694;DHT22;6919;52.344;14.518;2023-05-07T12:49:20;17.60;36.10
13694;DHT22;6919;52.344;14.518;2023-05-07T12:51:51;17.00;40.60
13694;DHT22;6919;52.344;14.518;2023-05-07T12:54:31;17.10;51.90
13694;DHT22;6919;52.344;14.518;2023-05-07T12:57:01;18.00;47.30
13694;DHT22;6919;52.344;14.518;2023-05-07T12:59:34;17.50;44.10
13694;DHT22;6919;52.344;14.518;2023-05-07T13:02:04;17.40;46.40
13694;DHT22;6919;52.344;14.518;2023-05-07T13:04:33;17.30;48.90
13694;DHT22;6919;52.344;14.518;2023-05-07T13:07:02;17.00;48.00
13694;DHT22;6919;52.344;14.518;2023-05-07T13:09:32;17.00;56.40
13694;DHT22;6919;52.344;14.518;2023-05-07T13:12:00;18.00;58.40
13694;DHT22;6919;52.344;14.518;2023-05-07T13:14:29;18.90;33.90
13694;DHT22;6919;52.344;14.518;2023-05-07T13:16:59;18.60;31.90
13694;DHT22;6919;52.344;14.518;2023-05-07T13:19:27;18.00;48.70
13694;DHT22;6919;52.344;14.518;2023-05-07T13:21:57;17.90;31.90
13694;DHT22;6919;52.344;14.518;2023-05-07T13:24:25;18.70;36.50
13694;DHT22;6919;52.344;14.518;2023-05-07T13:26:55;19.60;29.10
13694;DHT22;6919;52.344;14.518;2023-05-07T13:29:23;20.50;22.90
13694;DHT22;6919;52.344;14.518;2023-05-07T13:31:56;20.80;15.90
13694;DHT22;6919;52.344;14.518;2023-05-07T13:34:25;20.10;15.50
13694;DHT22;6919;52.344;14.518;2023-05-07T13:36:53;18.90;18.50
13694;DHT22;6919;52.344;14.518;2023-05-07T13:39:22;18.00;22.50
13694;DHT22;6919;52.344;14.518;2023-05-07T13:41:50;17.20;30.70
13694;DHT22;6919;52.344;14.518;2023-05-07T13:44:20;16.90;41.50
13694;DHT22;6919;52.344;14.518;2023-05-07T13:46:48;16.70;54.40
13694;DHT22;6919;52.344;14.518;2023-05-07T13:49:17;16.80;56.90
13694;DHT22;6919;52.344;14.518;2023-05-07T13:51:45;16.60;55.10
13694;DHT22;6919;52.344;14.518;2023-05-07T13:54:13;16.60;83.70
13694;DHT22;6919;52.344;14.518;2023-05-07T13:56:42;16.50;67.80
13694;DHT22;6919;52.344;14.518;2023-05-07T13:59:10;16.40;68.90
13694;DHT22;6919;52.344;14.518;2023-05-07T14:01:42;16.30;77.40
13694;DHT22;6919;52.344;14.518;2023-05-07T14:04:10;16.40;78.60
13694;DHT22;6919;52.344;14.518;2023-05-07T14:06:38;16.70;68.40
13694;DHT22;6919;52.344;14.518;2023-05-07T14:09:09;16.80;72.90
13694;DHT22;6919;52.344;14.518;2023-05-07T14:11:39;16.60;82.10
13694;DHT22;6919;52.344;14.518;2023-05-07T14:14:08;16.40;61.30
13694;DHT22;6919;52.344;14.518;2023-05-07T14:16:37;16.50;69.30
13694;DHT22;6919;52.344;14.518;2023-05-07T14:19:07;16.40;83.70
13694;DHT22;6919;52.344;14.518;2023-05-07T14:21:35;17.10;63.30
13694;DHT22;6919;52.344;14.518;2023-05-07T14:24:04;16.80;51.10
13694;DHT22;6919;52.344;14.518;2023-05-07T14:26:33;16.60;53.50
13694;DHT22;6919;52.344;14.518;2023-05-07T14:29:02;16.40;60.30
13694;DHT22;6919;52.344;14.518;2023-05-07T14:31:32;16.50;63.20
13694;DHT22;6919;52.344;14.518;2023-05-07T14:34:00;16.10;62.60
13694;DHT22;6919;52.344;14.518;2023-05-07T14:36:30;15.80;75.30
13694;DHT22;6919;52.344;14.518;2023-05-07T14:38:58;15.90;76.80
13694;DHT22;6919;52.344;14.518;2023-05-07T14:41:27;15.90;81.60
13694;DHT22;6919;52.344;14.518;2023-05-07T14:43:55;15.90;92.30
13694;DHT22;6919;52.344;14.518;2023-05-07T14:46:23;15.80;99.90
13694;DHT22;6919;52.344;14.518;2023-05-07T14:48:52;15.60;94.20
13694;DHT22;6919;52.344;14.518;2023-05-07T14:51:21;15.50;90.30
13694;DHT22;6919;52.344;14.518;2023-05-07T14:53:51;15.30;84.20
13694;DHT22;6919;52.344;14.518;2023-05-07T14:56:19;15.50;92.90
13694;DHT22;6919;52.344;14.518;2023-05-07T14:58:48;15.60;87.10
13694;DHT22;6919;52.344;14.518;2023-05-07T15:01:16;15.50;82.60
13694;DHT22;6919;52.344;14.518;2023-05-07T15:03:45;15.30;83.30
13694;DHT22;6919;52.344;14.518;2023-05-07T15:06:13;15.30;75.80
13694;DHT22;6919;52.344;14.518;2023-05-07T15:08:42;15.80;74.10
13694;DHT22;6919;52.344;14.518;2023-05-07T15:11:12;15.70;71.80
13694;DHT22;6919;52.344;14.518;2023-05-07T15:13:41;15.40;75.70
13694;DHT22;6919;52.344;14.518;2023-05-07T15:16:10;15.70;83.90
13694;DHT22;6919;52.344;14.518;2023-05-07T15:21:07;15.50;94.30
13694;DHT22;6919;52.344;14.518;2023-05-07T15:23:35;15.60;93.30
13694;DHT22;6919;52.344;14.518;2023-05-07T15:26:04;15.60;99.90
13694;DHT22;6919;52.344;14.518;2023-05-07T15:28:35;15.50;99.90
13694;DHT22;6919;52.344;14.518;2023-05-07T15:31:06;15.50;96.80
13694;DHT22;6919;52.344;14.518;2023-05-07T15:33:35;15.40;99.30
13694;DHT22;6919;52.344;14.518;2023-05-07T15:36:05;15.30;99.90
13694;DHT22;6919;52.344;14.518;2023-05-07T15:38:33;15.30;99.90
13694;DHT22;6919;52.344;14.518;2023-05-07T15:41:02;15.30;99.50
13694;DHT22;6919;52.344;14.518;2023-05-07T15:43:31;15.10;99.90
13694;DHT22;6919;52.344;14.518;2023-05-07T15:46:00;15.30;99.90
13694;DHT22;6919;52.344;14.518;2023-05-07T15:48:29;15.10;99.90
13694;DHT22;6919;52.344;14.518;2023-05-07T15:50:57;15.00;99.90
13694;DHT22;6919;52.344;14.518;2023-05-07T15:53:26;15.20;96.10
13694;DHT22;6919;52.344;14.518;2023-05-07T15:55:54;15.20;90.00